Terminal Aerodrome Forecast
Issued by NWS Springfield, MO

Home | Current Version | Previous Version | Text Only | Print | Product List | Glossary On
Versions: 1 2 3 4 5 6 7 8 9 10 11 12 13 14 15 16 17 18 19 20
000
FTUS43 KSGF 241100 CCA
TAFSGF
TAF COR
KSGF 241158Z 2412/2512 32009KT P6SM OVC010
     FM241215 32010KT P6SM OVC008
     FM241830 30013KT P6SM OVC015
     FM250130 23007KT P6SM SKC=

USA.gov is the U.S. government's official web portal to all federal, state and local government web resources and services.